Time;durP1;ratioP1;P1;durP2;ratioP2;P2;SDS_P1;SDS_P2;PMS_P1;PMS_P2;Temp;Humidity;BMP_temperature;BMP_pressure;BME280_temperature;BME280_humidity;BME280_pressure;Samples;Min_cycle;Max_cycle;Signal;HPM_P1;HPM_P2
2023/03/23 00:01:49;;;;;;;8.75;5.80;;;17.00;99.90;;;;;;5038545;28;20403;-67
2023/03/23 00:04:16;;;;;;;8.45;5.72;;;16.30;99.90;;;;;;5032813;28;20064;-67
2023/03/23 00:06:44;;;;;;;9.77;7.55;;;12.30;99.90;;;;;;5037392;28;20037;-68
2023/03/23 00:09:14;;;;;;;12.65;10.85;;;16.70;99.90;;;;;;5032803;28;20045;-68
2023/03/23 00:11:41;;;;;;;17.58;14.27;;;14.50;99.90;;;;;;5041521;28;20064;-68
2023/03/23 00:14:13;;;;;;;16.63;14.60;;;16.80;99.90;;;;;;5051385;28;20041;-68
2023/03/23 00:16:40;;;;;;;17.65;15.82;;;18.30;99.90;;;;;;5049174;28;21141;-68
2023/03/23 00:19:14;;;;;;;18.58;16.40;;;16.00;99.90;;;;;;5048415;28;20041;-67
2023/03/23 00:21:41;;;;;;;21.25;18.38;;;17.50;99.90;;;;;;5052432;28;20132;-68
2023/03/23 00:24:15;;;;;;;19.38;17.38;;;16.70;99.90;;;;;;5043981;28;20049;-67
2023/03/23 00:26:44;;;;;;;21.63;18.77;;;17.90;99.90;;;;;;5049919;28;20446;-67
2023/03/23 00:29:14;;;;;;;19.20;16.55;;;16.30;99.90;;;;;;5051355;28;20109;-68
2023/03/23 00:31:40;;;;;;;19.98;16.73;;;17.90;99.90;;;;;;5051089;28;20419;-67
2023/03/23 00:34:06;;;;;;;20.90;16.73;;;18.70;99.90;;;;;;5050350;28;20044;-67
2023/03/23 00:36:34;;;;;;;16.45;14.57;;;13.20;99.90;;;;;;5050785;28;20029;-68
2023/03/23 00:39:01;;;;;;;17.92;14.95;;;17.80;99.90;;;;;;5052299;28;20063;-67
2023/03/23 00:41:28;;;;;;;15.27;13.68;;;15.20;99.90;;;;;;5047319;28;20547;-67
2023/03/23 00:43:57;;;;;;;16.15;14.02;;;14.00;99.90;;;;;;5051493;28;20068;-67
2023/03/23 00:46:24;;;;;;;21.08;15.18;;;12.50;99.90;;;;;;5051969;28;20487;-68
2023/03/23 00:48:50;;;;;;;14.93;13.30;;;14.00;99.90;;;;;;5050332;28;20037;-67
2023/03/23 00:51:17;;;;;;;21.25;17.00;;;15.20;99.90;;;;;;5037564;28;20033;-68
2023/03/23 00:53:43;;;;;;;19.40;16.08;;;15.10;99.90;;;;;;5051507;28;20135;-67
2023/03/23 00:56:09;;;;;;;17.60;14.80;;;14.60;99.90;;;;;;5050128;28;20115;-67
2023/03/23 00:58:35;;;;;;;17.85;13.95;;;12.50;99.90;;;;;;5037485;28;20045;-67
2023/03/23 01:01:01;;;;;;;16.25;12.52;;;16.20;99.90;;;;;;5037662;28;20036;-67
2023/03/23 01:03:28;;;;;;;14.50;12.63;;;13.60;99.90;;;;;;5051113;28;20097;-67
2023/03/23 01:05:54;;;;;;;16.40;12.80;;;13.90;99.90;;;;;;5037980;28;20040;-67
2023/03/23 01:08:21;;;;;;;16.45;12.55;;;13.30;99.90;;;;;;5051847;28;20123;-67
2023/03/23 01:10:48;;;;;;;15.05;11.88;;;18.40;99.90;;;;;;5048675;28;20127;-67
2023/03/23 01:13:14;;;;;;;17.38;13.45;;;18.70;99.90;;;;;;5048909;28;20080;-68
2023/03/23 01:15:40;;;;;;;14.50;12.63;;;15.40;99.90;;;;;;5051249;28;20041;-67
2023/03/23 01:18:07;;;;;;;17.33;13.70;;;17.20;99.90;;;;;;5051266;28;20055;-68
2023/03/23 01:20:32;;;;;;;15.55;11.98;;;14.80;99.90;;;;;;5050118;28;20080;-68
2023/03/23 01:23:00;;;;;;;15.25;11.68;;;12.50;99.90;;;;;;5044010;28;20111;-68
2023/03/23 01:25:30;;;;;;;16.02;12.07;;;18.90;99.90;;;;;;5038187;28;20033;-68
2023/03/23 01:27:57;;;;;;;15.07;10.50;;;17.80;99.90;;;;;;5051095;28;20044;-68
2023/03/23 01:30:23;;;;;;;14.23;10.82;;;18.10;99.90;;;;;;5051274;28;20040;-67
2023/03/23 01:32:49;;;;;;;14.90;11.35;;;18.90;99.90;;;;;;5046032;28;20045;-68
2023/03/23 01:35:15;;;;;;;17.15;10.05;;;13.90;99.90;;;;;;5031506;28;20045;-68
2023/03/23 01:37:41;;;;;;;13.82;10.05;;;16.60;99.90;;;;;;5045976;28;20040;-67
2023/03/23 01:40:08;;;;;;;14.23;10.10;;;19.00;99.90;;;;;;5049287;28;20041;-68
2023/03/23 01:42:35;;;;;;;12.95;9.90;;;18.90;99.90;;;;;;5050337;28;20044;-68
2023/03/23 01:45:19;;;;;;;12.68;10.20;;;16.40;99.90;;;;;;5051099;28;20068;-68
2023/03/23 01:47:48;;;;;;;18.95;10.32;;;16.70;99.90;;;;;;5051028;28;20262;-67
2023/03/23 01:50:14;;;;;;;12.90;9.20;;;12.90;99.90;;;;;;5049575;28;20112;-68
2023/03/23 01:52:40;;;;;;;13.52;9.77;;;16.50;99.90;;;;;;5045594;28;20128;-68
2023/03/23 01:55:06;;;;;;;17.85;7.65;;;14.20;99.90;;;;;;5030604;28;20048;-67
2023/03/23 01:57:32;;;;;;;13.98;8.68;;;17.30;99.90;;;;;;5032670;28;20045;-67
2023/03/23 02:00:06;;;;;;;17.88;9.00;;;14.70;99.90;;;;;;5041942;28;20048;-67
2023/03/23 02:02:35;;;;;;;17.20;7.90;;;13.80;99.90;;;;;;5029635;28;20060;-67
2023/03/23 02:05:06;;;;;;;13.32;6.90;;;12.90;99.90;;;;;;5029316;28;20045;-67
2023/03/23 02:07:32;;;;;;;13.07;7.15;;;14.50;99.90;;;;;;5034596;28;20040;-67
2023/03/23 02:09:57;;;;;;;16.90;6.88;;;18.20;99.90;;;;;;5049140;28;20037;-67
2023/03/23 02:12:23;;;;;;;12.93;6.80;;;17.70;99.90;;;;;;5048407;28;20041;-67
2023/03/23 02:14:48;;;;;;;14.25;5.03;;;12.90;99.90;;;;;;5050824;28;20037;-68
2023/03/23 02:17:32;;;;;;;10.63;4.57;;;15.70;99.90;;;;;;5047627;28;20041;-67
2023/03/23 02:20:17;;;;;;;12.55;4.68;;;13.40;99.90;;;;;;5049507;28;20491;-67
2023/03/23 02:23:02;;;;;;;10.38;3.60;;;16.30;99.90;;;;;;5035870;28;20045;-68
2023/03/23 02:25:39;;;;;;;13.18;3.83;;;14.20;99.90;;;;;;5047687;28;20051;-67
2023/03/23 02:28:29;;;;;;;12.10;3.80;;;19.30;99.90;;;;;;5048517;28;20445;-67
2023/03/23 02:31:22;;;;;;;11.13;3.25;;;14.70;99.90;;;;;;5046082;28;20049;-68
2023/03/23 02:34:09;;;;;;;12.82;3.63;;;17.90;99.90;;;;;;5041588;28;20102;-68
2023/03/23 02:37:00;;;;;;;9.05;3.25;;;13.60;99.90;;;;;;5050437;28;20098;-68
2023/03/23 02:39:39;;;;;;;10.00;3.08;;;17.20;99.90;;;;;;5049275;28;20045;-67
2023/03/23 02:42:07;;;;;;;6.45;2.85;;;17.40;99.90;;;;;;5022812;28;20439;-68
2023/03/23 02:44:36;;;;;;;14.27;3.60;;;15.10;99.90;;;;;;5043912;28;20041;-68
2023/03/23 02:47:05;;;;;;;13.23;3.08;;;18.70;99.90;;;;;;5030406;28;20048;-68
2023/03/23 02:49:35;;;;;;;8.38;3.15;;;15.90;99.90;;;;;;5047844;28;20049;-68
2023/03/23 02:52:05;;;;;;;11.98;2.83;;;17.20;99.90;;;;;;5054192;28;20045;-67
2023/03/23 02:54:31;;;;;;;8.07;2.75;;;17.30;99.90;;;;;;5037131;28;20549;-68
2023/03/23 02:56:57;;;;;;;7.60;2.75;;;14.80;99.90;;;;;;5053048;28;20491;-67
2023/03/23 02:59:23;;;;;;;14.55;3.03;;;13.70;99.90;;;;;;5052834;28;20045;-68
2023/03/23 03:01:57;;;;;;;10.35;2.95;;;16.00;99.90;;;;;;5053875;28;20371;-68
2023/03/23 03:04:26;;;;;;;7.88;2.70;;;15.10;99.90;;;;;;5038456;28;20046;-68
2023/03/23 03:07:01;;;;;;;9.40;3.22;;;16.20;99.90;;;;;;5033961;28;20188;-68
2023/03/23 03:09:46;;;;;;;12.70;3.45;;;14.90;99.90;;;;;;5053415;28;20052;-68
2023/03/23 03:12:35;;;;;;;12.95;2.67;;;16.00;99.90;;;;;;5042681;28;20048;-68
2023/03/23 03:15:26;;;;;;;9.45;2.97;;;15.80;99.90;;;;;;5027353;28;20740;-68
2023/03/23 03:18:12;;;;;;;10.85;3.40;;;16.00;99.90;;;;;;5050456;28;20048;-68
2023/03/23 03:20:47;;;;;;;14.70;3.00;;;13.50;99.90;;;;;;5053819;28;20048;-68
2023/03/23 03:23:14;;;;;;;11.90;2.85;;;16.70;99.90;;;;;;5048474;28;20499;-68
2023/03/23 03:25:42;;;;;;;12.43;3.70;;;18.40;99.90;;;;;;5038774;28;20084;-68
2023/03/23 03:28:08;;;;;;;13.77;3.22;;;17.40;99.90;;;;;;5053828;28;20417;-67
2023/03/23 03:30:36;;;;;;;13.63;3.10;;;13.50;99.90;;;;;;5053469;28;20040;-68
2023/03/23 03:33:02;;;;;;;12.98;3.35;;;16.10;99.90;;;;;;5052563;28;20072;-68
2023/03/23 03:35:29;;;;;;;14.95;3.22;;;16.80;99.90;;;;;;5033701;28;20470;-68
2023/03/23 03:37:55;;;;;;;16.38;3.90;;;16.40;99.90;;;;;;5046551;28;20048;-68
2023/03/23 03:40:22;;;;;;;13.07;3.15;;;16.60;99.90;;;;;;5051127;28;20029;-68
2023/03/23 03:42:48;;;;;;;10.38;3.47;;;13.10;99.90;;;;;;5052850;28;20029;-67
2023/03/23 03:45:17;;;;;;;13.23;3.15;;;13.10;99.90;;;;;;5034668;28;20044;-67
2023/03/23 03:47:43;;;;;;;12.80;3.35;;;13.40;99.90;;;;;;5034205;28;20052;-67
2023/03/23 03:50:09;;;;;;;11.90;2.78;;;14.10;99.90;;;;;;5032284;28;20045;-68
2023/03/23 03:52:35;;;;;;;12.93;3.38;;;16.50;99.90;;;;;;5033569;28;20128;-67
2023/03/23 03:55:01;;;;;;;15.65;3.65;;;18.10;99.90;;;;;;5050635;28;20119;-67
2023/03/23 03:57:27;;;;;;;12.95;3.25;;;14.90;99.90;;;;;;5033226;28;20167;-68
2023/03/23 03:59:52;;;;;;;14.40;3.78;;;17.50;99.90;;;;;;5033144;28;20037;-67
2023/03/23 04:02:19;;;;;;;11.63;3.22;;;17.90;99.90;;;;;;5035266;28;20045;-67
2023/03/23 04:04:49;;;;;;;13.68;3.88;;;13.50;99.90;;;;;;5045858;28;20403;-68
2023/03/23 04:07:16;;;;;;;17.48;4.10;;;14.30;99.90;;;;;;5052547;28;20044;-67
2023/03/23 04:09:47;;;;;;;19.20;4.35;;;17.00;99.90;;;;;;5034762;28;20049;-67
2023/03/23 04:12:14;;;;;;;16.88;4.18;;;17.90;99.90;;;;;;5050935;28;20037;-67
2023/03/23 04:14:40;;;;;;;20.63;4.55;;;17.50;99.90;;;;;;5052793;28;20075;-67
2023/03/23 04:17:08;;;;;;;16.90;3.97;;;16.70;99.90;;;;;;5052786;28;20040;-67
2023/03/23 04:19:36;;;;;;;17.27;4.47;;;17.20;99.90;;;;;;5048478;28;20513;-67
2023/03/23 04:22:04;;;;;;;26.30;5.18;;;17.50;99.90;;;;;;5047223;28;20506;-70
2023/03/23 04:24:32;;;;;;;20.70;4.70;;;16.70;99.90;;;;;;5049162;28;20045;-71
2023/03/23 04:26:57;;;;;;;20.25;4.32;;;16.30;99.90;;;;;;5031324;28;20092;-70
2023/03/23 04:29:23;;;;;;;23.27;5.03;;;13.40;99.90;;;;;;5040065;28;20044;-70
2023/03/23 04:31:50;;;;;;;28.50;6.00;;;17.80;99.90;;;;;;5051934;28;20040;-70
2023/03/23 04:34:16;;;;;;;30.30;6.85;;;13.50;99.90;;;;;;5034428;28;20181;-70
2023/03/23 04:36:42;;;;;;;22.98;5.00;;;14.70;99.90;;;;;;5050967;28;20041;-71
2023/03/23 04:39:09;;;;;;;28.90;5.20;;;17.00;99.90;;;;;;5050210;28;20124;-70
2023/03/23 04:41:39;;;;;;;21.00;5.03;;;13.20;99.90;;;;;;5050165;28;20661;-70
2023/03/23 04:44:06;;;;;;;25.90;4.93;;;13.50;99.90;;;;;;5051099;28;20490;-70
2023/03/23 04:46:32;;;;;;;22.77;5.72;;;16.90;99.90;;;;;;5052130;28;20040;-71
2023/03/23 04:48:58;;;;;;;33.30;6.70;;;13.90;99.90;;;;;;5050972;28;20053;-71
2023/03/23 04:51:26;;;;;;;26.42;5.43;;;16.00;99.90;;;;;;5048905;28;20462;-71
2023/03/23 04:53:52;;;;;;;27.30;5.53;;;16.60;99.90;;;;;;5029296;28;20034;-70
2023/03/23 04:56:18;;;;;;;30.00;6.15;;;14.50;99.90;;;;;;5042469;28;20036;-70
2023/03/23 04:58:44;;;;;;;38.38;6.75;;;15.80;99.90;;;;;;5050558;28;20037;-70
2023/03/23 05:01:13;;;;;;;37.17;6.95;;;16.50;99.90;;;;;;5051182;28;20163;-70
2023/03/23 05:03:42;;;;;;;35.95;6.82;;;15.40;99.90;;;;;;5050564;28;20073;-70
2023/03/23 05:06:07;;;;;;;37.35;7.45;;;15.80;99.90;;;;;;5050244;28;20086;-70
2023/03/23 05:08:33;;;;;;;39.05;8.25;;;13.70;99.90;;;;;;5030481;28;20037;-70
2023/03/23 05:11:00;;;;;;;49.13;7.90;;;19.00;99.90;;;;;;5051751;28;20048;-70
2023/03/23 05:13:27;;;;;;;40.42;7.07;;;13.10;99.90;;;;;;5034591;28;20077;-70
2023/03/23 05:15:54;;;;;;;31.40;6.57;;;15.40;99.90;;;;;;5030365;28;20453;-70
2023/03/23 05:18:20;;;;;;;50.25;8.45;;;16.20;99.90;;;;;;5031673;28;20084;-70
2023/03/23 05:20:46;;;;;;;36.33;7.03;;;12.60;99.90;;;;;;5030240;28;20077;-70
2023/03/23 05:23:12;;;;;;;38.60;6.95;;;16.40;99.90;;;;;;5035046;28;20115;-70
2023/03/23 05:25:40;;;;;;;35.20;7.20;;;17.00;99.90;;;;;;5044531;28;20406;-70
2023/03/23 05:28:11;;;;;;;38.38;7.97;;;17.00;99.90;;;;;;5050068;28;20047;-70
2023/03/23 05:30:38;;;;;;;31.55;6.68;;;16.00;99.90;;;;;;5049939;28;20053;-70
2023/03/23 05:33:04;;;;;;;36.63;7.18;;;14.60;99.90;;;;;;5049072;28;20049;-70
2023/03/23 05:35:30;;;;;;;36.88;6.55;;;12.80;99.90;;;;;;5051202;28;20431;-70
2023/03/23 05:37:59;;;;;;;33.72;7.30;;;16.10;99.90;;;;;;5049853;28;20047;-70
2023/03/23 05:40:25;;;;;;;38.97;7.47;;;13.50;99.90;;;;;;5042091;28;20055;-70
2023/03/23 05:42:51;;;;;;;29.25;6.78;;;12.90;99.90;;;;;;5050623;28;20033;-70
2023/03/23 05:45:18;;;;;;;33.55;6.88;;;12.60;99.90;;;;;;5051141;28;20036;-70
2023/03/23 05:47:44;;;;;;;28.35;5.60;;;13.40;99.90;;;;;;5047924;28;20045;-70
2023/03/23 05:50:10;;;;;;;19.85;3.80;;;13.90;99.90;;;;;;5029850;28;20045;-70
2023/03/23 05:52:36;;;;;;;19.05;3.10;;;12.60;99.90;;;;;;5031196;28;20048;-70
2023/03/23 05:55:03;;;;;;;14.80;3.58;;;13.30;99.90;;;;;;5039964;28;20033;-69
2023/03/23 05:57:30;;;;;;;19.33;3.40;;;12.80;99.90;;;;;;5047799;28;20087;-70
2023/03/23 05:59:57;;;;;;;26.92;4.03;;;13.10;99.90;;;;;;5034467;28;20041;-69
2023/03/23 06:02:23;;;;;;;21.55;3.85;;;15.10;99.90;;;;;;5043716;28;20119;-69
2023/03/23 06:04:50;;;;;;;22.27;4.35;;;15.30;99.90;;;;;;5050754;28;20107;-69
2023/03/23 06:07:15;;;;;;;22.83;5.43;;;14.90;99.90;;;;;;5041343;28;20086;-69
2023/03/23 06:09:42;;;;;;;27.13;4.63;;;12.20;99.90;;;;;;5033273;28;20044;-69
2023/03/23 06:12:09;;;;;;;29.45;4.93;;;12.40;99.90;;;;;;5046543;28;20080;-69
2023/03/23 06:14:35;;;;;;;28.88;5.25;;;12.40;99.90;;;;;;5070794;28;20137;-70
2023/03/23 06:17:01;;;;;;;26.35;5.32;;;16.00;99.90;;;;;;5054114;28;20050;-69
2023/03/23 06:19:27;;;;;;;17.20;4.28;;;13.00;99.90;;;;;;5044723;28;20505;-69
2023/03/23 06:21:55;;;;;;;26.50;5.93;;;16.10;99.90;;;;;;5044117;28;20052;-70
2023/03/23 06:24:21;;;;;;;20.55;4.90;;;15.90;99.90;;;;;;5049259;28;20510;-69
2023/03/23 06:26:47;;;;;;;21.67;4.38;;;15.10;99.90;;;;;;5035377;28;20411;-69
2023/03/23 06:29:13;;;;;;;22.98;5.32;;;14.60;99.90;;;;;;5053366;28;20036;-69
2023/03/23 06:31:45;;;;;;;28.27;4.78;;;14.10;99.90;;;;;;5042843;28;20049;-71
2023/03/23 06:34:11;;;;;;;32.80;6.57;;;12.90;99.90;;;;;;5047056;28;20044;-70
2023/03/23 06:36:38;;;;;;;40.08;7.60;;;16.00;99.90;;;;;;5053174;28;20049;-69
2023/03/23 06:39:04;;;;;;;51.00;10.27;;;15.10;99.90;;;;;;5037275;28;20033;-73
2023/03/23 06:41:31;;;;;;;54.00;9.40;;;14.20;99.90;;;;;;5043096;28;20052;-68
2023/03/23 06:43:58;;;;;;;40.53;7.25;;;16.40;99.90;;;;;;5048238;28;20499;-69
2023/03/23 06:46:23;;;;;;;40.15;7.90;;;12.80;99.90;;;;;;5032985;28;20043;-70
2023/03/23 06:48:50;;;;;;;42.08;8.30;;;13.70;99.90;;;;;;5033397;28;20124;-69
2023/03/23 06:51:16;;;;;;;53.40;10.20;;;12.60;99.90;;;;;;5036479;28;20060;-70
2023/03/23 06:53:42;;;;;;;49.15;8.50;;;16.40;99.90;;;;;;5047919;28;20052;-70
2023/03/23 06:56:08;;;;;;;52.58;10.00;;;13.10;99.90;;;;;;5041104;28;20037;-69
2023/03/23 06:58:34;;;;;;;46.78;9.25;;;12.80;99.90;;;;;;5034748;28;20666;-70
2023/03/23 07:01:00;;;;;;;40.63;7.95;;;14.40;99.90;;;;;;5049190;28;20044;-70
2023/03/23 07:03:27;;;;;;;56.38;9.90;;;13.10;99.90;;;;;;5050434;28;20068;-69
2023/03/23 07:05:54;;;;;;;58.05;9.57;;;15.00;99.90;;;;;;5035156;28;20044;-70
2023/03/23 07:08:20;;;;;;;54.80;9.77;;;12.70;99.90;;;;;;5051382;28;20048;-70
2023/03/23 07:10:47;;;;;;;49.38;9.57;;;15.70;99.90;;;;;;5045980;28;20518;-70
2023/03/23 07:13:12;;;;;;;50.80;8.43;;;16.50;99.90;;;;;;5046453;28;20043;-72
2023/03/23 07:15:39;;;;;;;48.38;9.10;;;16.80;99.90;;;;;;5058427;28;20124;-72
2023/03/23 07:18:04;;;;;;;54.17;8.55;;;15.50;99.90;;;;;;5046403;28;20115;-73
2023/03/23 07:20:30;;;;;;;66.05;9.93;;;15.70;99.90;;;;;;5042330;28;20155;-73
2023/03/23 07:22:56;;;;;;;51.25;9.35;;;12.50;99.90;;;;;;5036789;28;20107;-74
2023/03/23 07:25:22;;;;;;;51.90;9.27;;;16.30;99.90;;;;;;5039572;28;20137;-73
2023/03/23 07:27:47;;;;;;;50.08;9.10;;;12.40;99.90;;;;;;5037970;28;20044;-73
2023/03/23 07:30:14;;;;;;;51.60;9.18;;;14.90;99.90;;;;;;5043968;28;20045;-73
2023/03/23 07:32:41;;;;;;;50.33;9.30;;;16.40;99.90;;;;;;5037940;28;20037;-73
2023/03/23 07:35:07;;;;;;;60.70;10.10;;;13.20;99.90;;;;;;5043014;28;20033;-73
2023/03/23 07:37:34;;;;;;;49.80;10.00;;;14.00;99.90;;;;;;5044602;28;20045;-73
2023/03/23 07:39:59;;;;;;;52.50;10.13;;;13.10;99.90;;;;;;5050068;28;20067;-72
2023/03/23 07:42:25;;;;;;;50.03;9.10;;;16.70;99.90;;;;;;5044114;28;20037;-73
2023/03/23 07:44:50;;;;;;;40.63;8.82;;;15.10;99.90;;;;;;5042061;28;20510;-72
2023/03/23 07:47:17;;;;;;;58.00;9.25;;;13.00;99.90;;;;;;5038794;28;20610;-73
2023/03/23 07:49:43;;;;;;;52.28;9.30;;;15.90;99.90;;;;;;5037758;28;20041;-72
2023/03/23 07:52:10;;;;;;;42.60;8.32;;;14.40;99.90;;;;;;5042606;28;20380;-73
2023/03/23 07:54:36;;;;;;;50.35;8.77;;;16.70;99.90;;;;;;5048831;28;20399;-73
2023/03/23 07:57:02;;;;;;;45.17;8.13;;;13.40;99.90;;;;;;5049869;28;20036;-73
2023/03/23 07:59:28;;;;;;;53.28;9.25;;;14.00;99.90;;;;;;5046781;28;20045;-73
2023/03/23 08:01:53;;;;;;;41.05;8.18;;;15.80;99.90;;;;;;5048216;28;20058;-73
2023/03/23 08:04:19;;;;;;;59.80;9.15;;;14.50;99.90;;;;;;5046389;28;20402;-73
2023/03/23 08:06:45;;;;;;;51.13;8.85;;;13.40;99.90;;;;;;5044281;28;20433;-72
2023/03/23 08:09:11;;;;;;;51.47;9.23;;;16.50;99.90;;;;;;5042376;28;20037;-72
2023/03/23 08:11:38;;;;;;;50.05;8.88;;;13.60;99.90;;;;;;5042472;28;20095;-73
2023/03/23 08:14:05;;;;;;;45.83;7.38;;;17.50;99.90;;;;;;5035922;28;20708;-73
2023/03/23 08:16:31;;;;;;;43.72;8.90;;;17.20;99.90;;;;;;5034498;28;20034;-73
2023/03/23 08:18:57;;;;;;;47.55;8.80;;;14.90;99.90;;;;;;5040081;28;20045;-72
2023/03/23 08:21:23;;;;;;;42.25;7.97;;;15.20;99.90;;;;;;5025871;28;20176;-72
2023/03/23 08:23:49;;;;;;;52.20;9.65;;;17.40;99.90;;;;;;5039458;28;20056;-72
2023/03/23 08:26:17;;;;;;;53.15;9.60;;;15.70;99.90;;;;;;5036869;28;20029;-72
2023/03/23 08:28:43;;;;;;;45.33;8.45;;;16.90;99.90;;;;;;5044905;28;20044;-72
2023/03/23 08:31:14;;;;;;;45.88;8.98;;;18.50;99.90;;;;;;5046195;28;20044;-72
2023/03/23 08:33:41;;;;;;;51.60;9.35;;;16.60;99.90;;;;;;5044290;28;20041;-72
2023/03/23 08:36:07;;;;;;;49.97;9.15;;;18.80;99.90;;;;;;5039259;28;20136;-72
2023/03/23 08:38:33;;;;;;;47.38;9.30;;;16.60;99.90;;;;;;5046534;28;20253;-73
2023/03/23 08:41:00;;;;;;;45.83;8.82;;;17.10;99.90;;;;;;5031773;28;20510;-76
2023/03/23 08:43:27;;;;;;;44.55;9.38;;;17.40;99.90;;;;;;5046566;28;20056;-73
2023/03/23 08:45:53;;;;;;;49.30;9.15;;;18.80;99.90;;;;;;5031801;28;20042;-73
2023/03/23 08:48:19;;;;;;;37.20;7.68;;;19.00;99.90;;;;;;5043019;28;20037;-72
2023/03/23 08:50:45;;;;;;;43.10;8.60;;;18.30;99.90;;;;;;5033134;28;21114;-72
2023/03/23 08:53:11;;;;;;;44.75;9.15;;;18.60;99.90;;;;;;5041360;28;20052;-73
2023/03/23 08:55:38;;;;;;;38.38;7.85;;;18.50;99.90;;;;;;5036018;28;20032;-73
2023/03/23 08:58:04;;;;;;;43.53;9.50;;;16.90;99.90;;;;;;5042088;28;20119;-72
2023/03/23 09:00:30;;;;;;;39.45;8.65;;;18.50;99.90;;;;;;5040594;28;20132;-72
2023/03/23 09:02:56;;;;;;;43.10;7.90;;;17.20;99.90;;;;;;5047397;28;20102;-73
2023/03/23 09:05:25;;;;;;;48.47;10.32;;;18.50;99.90;;;;;;5033343;28;20113;-72
2023/03/23 09:07:53;;;;;;;41.47;8.98;;;18.70;99.90;;;;;;5040999;28;20051;-72
2023/03/23 09:10:20;;;;;;;39.35;8.88;;;17.10;99.90;;;;;;5038185;28;20120;-72
2023/03/23 09:12:46;;;;;;;40.65;8.93;;;17.80;99.90;;;;;;5047472;28;20087;-72
2023/03/23 09:15:15;;;;;;;43.42;8.07;;;17.00;99.90;;;;;;5044796;28;20040;-70
2023/03/23 09:17:44;;;;;;;56.60;9.85;;;16.80;99.90;;;;;;5040268;28;20578;-72
2023/03/23 09:20:11;;;;;;;46.17;9.38;;;17.10;99.90;;;;;;5039853;28;20068;-71
2023/03/23 09:22:43;;;;;;;47.20;9.13;;;18.20;99.90;;;;;;5034772;28;20073;-71
2023/03/23 09:25:11;;;;;;;50.88;10.07;;;17.70;99.90;;;;;;5040067;28;20077;-71
2023/03/23 09:27:38;;;;;;;44.63;9.60;;;17.10;99.90;;;;;;5034883;28;20033;-71
2023/03/23 09:30:10;;;;;;;40.15;8.02;;;17.30;99.90;;;;;;5039797;28;20047;-71
2023/03/23 09:32:36;;;;;;;43.88;9.18;;;17.70;99.90;;;;;;5031330;28;20037;-71
2023/03/23 09:35:04;;;;;;;34.92;7.85;;;17.20;99.90;;;;;;5047120;28;20095;-71
2023/03/23 09:37:31;;;;;;;51.25;9.85;;;16.90;99.90;;;;;;5032776;28;20091;-71
2023/03/23 09:39:56;;;;;;;51.28;10.00;;;17.70;99.90;;;;;;5032666;28;20503;-71
2023/03/23 09:42:35;;;;;;;38.00;7.97;;;16.50;99.90;;;;;;5036889;28;20087;-71
2023/03/23 09:45:19;;;;;;;35.83;8.32;;;16.60;99.90;;;;;;5030716;28;20080;-71
2023/03/23 09:48:16;;;;;;;43.75;9.25;;;16.40;99.90;;;;;;5029086;28;20082;-71
2023/03/23 09:50:46;;;;;;;48.70;10.57;;;17.70;99.90;;;;;;5036500;28;20510;-71
2023/03/23 09:53:39;;;;;;;48.38;9.77;;;16.50;99.90;;;;;;5038008;28;20446;-71
2023/03/23 09:56:11;;;;;;;36.15;8.98;;;17.50;99.90;;;;;;5027573;28;20084;-72
2023/03/23 09:58:48;;;;;;;38.63;8.35;;;17.50;99.90;;;;;;5037545;28;20705;-70
2023/03/23 10:01:29;;;;;;;44.40;8.60;;;18.20;99.90;;;;;;5037125;28;20053;-70
2023/03/23 10:04:27;;;;;;;41.35;8.88;;;16.50;99.90;;;;;;5043036;28;20063;-71
2023/03/23 10:06:59;;;;;;;34.75;7.97;;;18.00;99.90;;;;;;5037015;28;20099;-70
2023/03/23 10:09:24;;;;;;;36.53;7.78;;;16.80;99.90;;;;;;5037954;28;20041;-70
2023/03/23 10:12:17;;;;;;;31.80;6.38;;;17.00;99.90;;;;;;5041984;28;20115;-70
2023/03/23 10:14:48;;;;;;;34.42;6.85;;;18.10;99.90;;;;;;5048522;28;20124;-70
2023/03/23 10:17:19;;;;;;;40.50;7.68;;;17.70;99.90;;;;;;5037290;28;20045;-71
2023/03/23 10:20:05;;;;;;;36.30;7.45;;;16.90;99.90;;;;;;5048131;28;20521;-71
2023/03/23 10:22:33;;;;;;;49.33;9.77;;;17.50;99.90;;;;;;5034982;28;20073;-70
2023/03/23 10:25:14;;;;;;;34.60;7.65;;;17.30;99.90;;;;;;5036775;28;20053;-70
2023/03/23 10:28:05;;;;;;;43.70;8.55;;;17.00;99.90;;;;;;5035242;28;20037;-70
2023/03/23 10:30:35;;;;;;;41.03;9.13;;;16.50;99.90;;;;;;5024241;28;20423;-70
2023/03/23 10:33:31;;;;;;;32.72;7.28;;;17.20;99.90;;;;;;5039631;28;20495;-70
2023/03/23 10:36:05;;;;;;;40.45;6.93;;;16.90;99.90;;;;;;5029697;28;20501;-70
2023/03/23 10:38:42;;;;;;;39.17;8.07;;;17.20;99.90;;;;;;5041469;28;20041;-68
2023/03/23 10:41:17;;;;;;;36.83;5.53;;;18.20;99.90;;;;;;5028873;28;20836;-68
2023/03/23 10:43:44;;;;;;;38.30;6.70;;;17.00;99.90;;;;;;5031628;28;20087;-68
2023/03/23 10:46:31;;;;;;;36.00;7.28;;;17.60;99.90;;;;;;5029421;28;20049;-68
2023/03/23 10:48:59;;;;;;;30.85;7.22;;;17.20;99.90;;;;;;5043781;28;20045;-68
2023/03/23 10:51:36;;;;;;;35.63;7.15;;;17.80;99.90;;;;;;5032708;28;20052;-67
2023/03/23 10:54:04;;;;;;;31.90;6.88;;;17.10;99.90;;;;;;5034925;28;20037;-68
2023/03/23 10:56:49;;;;;;;33.67;6.57;;;17.60;99.90;;;;;;5030232;28;20372;-67
2023/03/23 10:59:27;;;;;;;22.95;5.75;;;18.00;99.90;;;;;;5040876;28;20049;-68
2023/03/23 11:01:58;;;;;;;36.15;6.68;;;17.90;99.90;;;;;;5039477;28;20602;-68
2023/03/23 11:04:23;;;;;;;27.13;6.25;;;17.40;99.90;;;;;;5039320;28;20133;-68
2023/03/23 11:06:52;;;;;;;28.08;6.57;;;18.10;99.90;;;;;;5038819;28;20041;-68
2023/03/23 11:09:35;;;;;;;39.15;7.07;;;17.90;99.90;;;;;;5030021;28;20057;-67
2023/03/23 11:12:02;;;;;;;33.28;7.18;;;18.10;99.90;;;;;;5047671;28;20049;-68
2023/03/23 11:14:34;;;;;;;29.83;6.15;;;18.50;99.90;;;;;;5051680;28;20443;-67
2023/03/23 11:17:06;;;;;;;26.85;5.95;;;18.00;99.90;;;;;;5032587;28;20033;-67
2023/03/23 11:19:35;;;;;;;37.22;7.45;;;17.30;99.90;;;;;;5039505;28;20450;-68
2023/03/23 11:22:04;;;;;;;29.88;6.68;;;16.80;99.90;;;;;;5040370;28;20560;-67
2023/03/23 11:24:33;;;;;;;28.70;6.18;;;17.80;86.20;;;;;;5040384;28;20061;-67
2023/03/23 11:27:00;;;;;;;31.77;6.95;;;17.90;1.00;;;;;;5047256;28;20646;-67
2023/03/23 11:29:28;;;;;;;37.08;8.13;;;17.10;17.40;;;;;;5045894;28;20037;-67
2023/03/23 11:32:09;;;;;;;32.15;7.07;;;17.20;88.80;;;;;;5046472;28;20049;-67
2023/03/23 11:34:41;;;;;;;30.83;6.55;;;16.80;99.90;;;;;;5043440;28;20073;-67
2023/03/23 11:37:39;;;;;;;31.15;6.40;;;17.60;99.90;;;;;;5044877;28;20072;-67
2023/03/23 11:40:09;;;;;;;35.92;6.60;;;16.90;99.90;;;;;;5036986;28;20030;-67
2023/03/23 11:42:46;;;;;;;34.63;7.60;;;16.80;99.90;;;;;;5040340;28;20130;-67
2023/03/23 11:45:36;;;;;;;33.58;7.05;;;17.30;99.90;;;;;;5039563;28;20052;-67
2023/03/23 11:48:12;;;;;;;31.63;6.53;;;17.90;99.90;;;;;;5038494;28;20128;-67
2023/03/23 11:50:51;;;;;;;33.08;6.80;;;17.20;99.90;;;;;;5039721;28;20747;-67
2023/03/23 11:53:53;;;;;;;34.17;7.22;;;17.70;99.90;;;;;;5044491;28;20501;-67
2023/03/23 11:56:36;;;;;;;25.95;5.38;;;16.40;99.90;;;;;;5043902;28;20526;-67
2023/03/23 11:59:04;;;;;;;32.00;6.13;;;16.40;91.30;;;;;;5038493;28;20049;-68
2023/03/23 12:01:40;;;;;;;27.67;5.75;;;17.30;99.90;;;;;;5040276;28;20048;-67
2023/03/23 12:04:29;;;;;;;32.38;5.18;;;17.10;99.90;;;;;;5040986;28;20041;-68
2023/03/23 12:07:19;;;;;;;32.10;7.05;;;16.50;99.90;;;;;;5039130;28;20037;-67
2023/03/23 12:09:44;;;;;;;49.97;8.38;;;16.50;99.90;;;;;;5038393;28;20033;-68
2023/03/23 12:12:39;;;;;;;28.10;6.38;;;16.40;99.90;;;;;;5037977;28;20056;-67
2023/03/23 12:15:38;;;;;;;34.95;7.10;;;17.50;99.90;;;;;;5048035;28;20056;-67
2023/03/23 12:18:28;;;;;;;39.10;6.63;;;16.40;99.90;;;;;;5039177;28;20447;-67
2023/03/23 12:21:19;;;;;;;39.95;7.70;;;16.60;99.90;;;;;;5040683;28;20037;-67
2023/03/23 12:24:19;;;;;;;28.75;5.65;;;16.40;99.90;;;;;;5037558;28;20041;-67
2023/03/23 12:27:03;;;;;;;31.08;6.78;;;16.60;99.90;;;;;;5038243;28;20497;-67
2023/03/23 12:29:39;;;;;;;38.08;6.85;;;15.70;99.90;;;;;;5047364;28;20044;-67
2023/03/23 12:33:05;;;;;;;29.17;6.45;;;16.30;99.90;;;;;;5048965;28;20216;-67
2023/03/23 12:35:42;;;;;;;28.83;6.68;;;16.30;99.90;;;;;;4975785;28;20073;-67
2023/03/23 12:38:42;;;;;;;36.20;7.00;;;16.40;99.90;;;;;;4986904;28;20051;-67
2023/03/23 12:41:15;;;;;;;26.65;5.78;;;17.20;99.90;;;;;;5021496;28;20092;-67
2023/03/23 12:44:00;;;;;;;30.05;6.25;;;16.40;99.90;;;;;;5033081;28;20597;-67
2023/03/23 12:47:01;;;;;;;35.65;7.05;;;17.30;99.90;;;;;;5044340;28;20410;-67
2023/03/23 12:49:47;;;;;;;33.58;6.05;;;17.00;99.90;;;;;;4996020;28;20373;-67
2023/03/23 12:52:32;;;;;;;34.45;7.95;;;16.20;99.90;;;;;;5035169;28;20391;-67
2023/03/23 12:55:39;;;;;;;30.60;6.18;;;16.90;99.90;;;;;;5045867;28;20045;-67